Time;durP1;ratioP1;P1;durP2;ratioP2;P2;SDS_P1;SDS_P2;PMS_P1;PMS_P2;Temp;Humidity;BMP_temperature;BMP_pressure;BME280_temperature;BME280_humidity;BME280_pressure;Samples;Min_cycle;Max_cycle;Signal;HPM_P1;HPM_P2
2022/08/28 08:33:05;;;;;;;24.70;15.80;;;;;;;19.67;82.96;96737.22;2076542;28;20225;-74
2022/08/28 08:34:07;;;;;;;30.70;14.50;;;;;;;19.69;82.67;96729.16;2076154;28;20204;-74
2022/08/28 08:35:11;;;;;;;18.65;13.27;;;;;;;19.46;82.41;96723.06;2076480;28;20202;-74
2022/08/28 08:36:17;;;;;;;25.40;13.48;;;;;;;19.61;82.18;96728.94;2078450;28;20196;-75
2022/08/28 08:55:24;;;;;;;26.15;13.40;;;;;;;20.19;79.76;96753.38;2101734;27;20545;-71
2022/08/28 08:56:26;;;;;;;23.95;13.10;;;;;;;20.41;79.27;96750.78;2096657;28;20761;-66
2022/08/28 08:57:37;;;;;;;17.23;11.35;;;;;;;20.61;79.12;96744.66;2098755;28;20212;-66
2022/08/28 08:58:41;;;;;;;26.48;12.02;;;;;;;20.76;78.46;96745.22;2098321;28;20194;-73
2022/08/28 08:59:43;;;;;;;15.32;11.52;;;;;;;21.05;77.70;96747.16;2104310;28;20287;-72
2022/08/28 09:01:00;;;;;;;22.02;12.70;;;;;;;20.87;77.71;96754.88;2104382;28;20219;-72
2022/08/28 09:08:38;;;;;;;26.98;11.10;;;;;;;21.71;74.65;96755.72;2092915;28;20247;-68
2022/08/28 09:09:43;;;;;;;19.77;11.95;;;;;;;22.00;72.44;96747.81;2093854;28;20191;-66
2022/08/28 09:10:54;;;;;;;21.67;11.65;;;;;;;22.45;70.87;96751.81;2102132;28;20191;-67
2022/08/28 09:12:03;;;;;;;25.23;12.88;;;;;;;22.53;70.78;96749.28;2098488;27;20214;-67
2022/08/28 09:13:26;;;;;;;24.10;10.85;;;;;;;22.59;69.08;96739.88;2096198;28;20200;-67
2022/08/28 09:14:46;;;;;;;20.83;12.07;;;;;;;22.42;69.06;96754.75;2096261;28;20222;-68
2022/08/28 09:15:47;;;;;;;19.70;11.15;;;;;;;21.95;71.64;96756.22;2097422;28;20226;-67
2022/08/28 09:16:52;;;;;;;20.05;11.18;;;;;;;21.93;72.73;96754.66;2097957;27;20721;-67
2022/08/28 09:18:11;;;;;;;21.92;11.30;;;;;;;22.20;70.90;96755.84;2099613;28;20199;-67
2022/08/28 09:19:17;;;;;;;23.42;11.80;;;;;;;22.23;70.18;96758.19;2099922;28;20251;-72
2022/08/28 09:20:23;;;;;;;22.88;12.13;;;;;;;21.13;73.38;96757.16;2101132;28;20195;-72
2022/08/28 09:21:37;;;;;;;22.80;14.32;;;;;;;20.52;76.37;96758.69;2101048;27;20614;-72
2022/08/28 09:22:44;;;;;;;17.65;11.65;;;;;;;20.29;77.57;96740.22;2094393;28;20246;-67
2022/08/28 09:23:45;;;;;;;16.52;12.20;;;;;;;20.73;76.24;96758.72;2096820;28;20204;-67
2022/08/28 09:24:47;;;;;;;21.77;13.32;;;;;;;21.00;75.25;96750.22;2096403;28;20252;-68
2022/08/28 09:25:57;;;;;;;22.25;11.07;;;;;;;20.99;74.89;96742.41;2099402;28;20200;-68
2022/08/28 09:27:25;;;;;;;23.33;11.88;;;;;;;21.87;72.74;96750.72;2099525;28;20678;-68
2022/08/28 09:28:40;;;;;;;18.77;10.38;;;;;;;22.52;70.41;96754.75;2097181;28;20191;-68
2022/08/28 09:29:52;;;;;;;23.15;10.02;;;;;;;22.79;70.01;96752.22;2097139;28;20195;-69
2022/08/28 09:31:00;;;;;;;19.55;10.68;;;;;;;22.70;69.96;96745.06;2092326;28;20203;-68
2022/08/28 09:44:04;;;;;;;19.52;10.80;;;;;;;22.67;67.72;96756.81;2099487;28;20271;-72
2022/08/28 09:45:20;;;;;;;27.70;8.35;;;;;;;22.29;70.88;96761.13;2089906;28;20276;-70
2022/08/28 09:46:28;;;;;;;15.55;9.85;;;;;;;22.86;69.63;96756.97;2091391;28;20234;-70
2022/08/28 09:47:37;;;;;;;15.07;9.15;;;;;;;22.91;69.09;96760.03;2096484;28;20361;-70
2022/08/28 09:48:51;;;;;;;18.15;10.77;;;;;;;22.74;69.93;96758.91;2096269;28;20676;-70
2022/08/28 09:49:52;;;;;;;15.00;9.70;;;;;;;22.45;69.43;96754.47;2095356;28;20192;-70
2022/08/28 09:51:20;;;;;;;17.50;9.65;;;;;;;21.96;71.71;96762.38;2097340;28;20199;-70
2022/08/28 09:52:23;;;;;;;15.77;9.70;;;;;;;22.41;70.65;96758.38;2094773;28;20220;-70
2022/08/28 09:53:27;;;;;;;23.10;8.48;;;;;;;22.57;69.56;96760.50;2097749;28;20821;-70
2022/08/28 09:54:38;;;;;;;15.48;9.82;;;;;;;22.53;69.81;96759.09;2098771;28;20238;-70
2022/08/28 09:56:10;;;;;;;27.85;9.65;;;;;;;22.14;70.32;96759.88;2097983;28;20206;-70
2022/08/28 10:06:17;;;;;;;11.18;7.63;;;;;;;23.55;65.53;96746.94;2083479;28;20553;-68
2022/08/28 10:07:34;;;;;;;20.15;8.52;;;;;;;24.03;65.04;96761.03;2081973;28;20282;-68
2022/08/28 10:08:39;;;;;;;16.23;8.15;;;;;;;24.04;64.13;96762.72;2081131;28;20211;-68
2022/08/28 10:10:05;;;;;;;15.80;7.55;;;;;;;24.15;63.77;96762.50;2076280;28;20201;-70
2022/08/28 10:11:40;;;;;;;13.55;7.18;;;;;;;23.66;64.19;96720.09;2073696;28;20204;-69
2022/08/28 10:13:19;;;;;;;11.57;6.50;;;;;;;24.13;62.99;96765.31;2077208;28;20256;-64
2022/08/28 10:14:50;;;;;;;20.10;8.48;;;;;;;23.90;63.15;96764.03;2074753;28;20197;-64
2022/08/28 10:16:08;;;;;;;13.50;7.95;;;;;;;24.16;63.55;96761.50;2070067;28;20197;-64
2022/08/28 10:17:36;;;;;;;15.05;6.72;;;;;;;23.79;63.49;96765.06;2072273;28;20217;-69
2022/08/28 10:18:49;;;;;;;15.45;7.68;;;;;;;23.74;63.76;96772.66;2074084;28;20201;-69
2022/08/28 10:20:23;;;;;;;14.38;7.20;;;;;;;23.68;63.59;96757.25;2074005;28;20220;-69
2022/08/28 10:21:27;;;;;;;11.20;6.68;;;;;;;24.06;63.05;96771.41;2076712;28;20664;-69
2022/08/28 10:22:49;;;;;;;11.23;7.50;;;;;;;24.70;61.91;96764.19;2076439;28;20225;-68
2022/08/28 10:23:57;;;;;;;10.80;5.82;;;;;;;24.88;61.53;96761.50;2074838;28;20197;-68
2022/08/28 10:25:20;;;;;;;9.73;6.28;;;;;;;24.93;60.86;96758.38;2072495;28;20189;-67
2022/08/28 10:26:40;;;;;;;11.55;6.45;;;;;;;25.36;59.72;96770.03;2068354;28;20201;-70
2022/08/28 10:28:09;;;;;;;8.50;6.10;;;;;;;25.71;57.82;96764.66;2067683;28;20213;-67
2022/08/28 10:29:36;;;;;;;9.23;6.15;;;;;;;25.90;57.30;96758.22;2078419;28;20190;-67
2022/08/28 10:30:51;;;;;;;15.82;6.45;;;;;;;24.54;58.45;96769.38;2074762;28;20210;-67
2022/08/28 10:38:46;;;;;;;8.63;5.80;;;;;;;26.69;55.56;96755.19;2074002;28;20214;-68
2022/08/28 10:39:57;;;;;;;10.02;6.63;;;;;;;27.12;54.10;96757.72;2073770;28;20703;-67
2022/08/28 10:41:10;;;;;;;12.13;6.50;;;;;;;26.54;54.99;96761.22;2073069;28;20292;-67
2022/08/28 10:42:17;;;;;;;7.90;4.95;;;;;;;26.58;55.01;96761.72;2068998;28;20283;-68
2022/08/28 10:43:28;;;;;;;8.75;5.95;;;;;;;25.95;55.65;96761.25;2069512;28;20197;-67
2022/08/28 10:44:35;;;;;;;11.88;6.60;;;;;;;25.77;56.51;96758.69;2074287;28;20201;-67
2022/08/28 10:45:38;;;;;;;14.35;6.10;;;;;;;25.77;56.88;96755.19;2074779;28;20208;-67
2022/08/28 10:46:50;;;;;;;12.23;6.18;;;;;;;25.51;57.87;96756.91;2074576;28;20209;-67
2022/08/28 10:48:08;;;;;;;9.70;5.80;;;;;;;25.49;57.35;96760.75;2074438;28;20598;-67
2022/08/28 10:49:40;;;;;;;11.45;6.53;;;;;;;25.23;58.07;96756.22;2074622;28;20202;-64
2022/08/28 10:50:44;;;;;;;11.65;5.57;;;;;;;26.12;55.88;96759.50;2075721;28;20193;-63
2022/08/28 10:51:49;;;;;;;10.02;6.50;;;;;;;26.23;55.74;96755.66;2070805;28;20197;-63
2022/08/28 10:52:59;;;;;;;10.35;5.50;;;;;;;26.97;53.42;96758.41;2072154;28;20209;-65
2022/08/28 10:54:11;;;;;;;12.43;5.47;;;;;;;26.34;53.45;96757.19;2073788;28;20198;-68
2022/08/28 10:55:20;;;;;;;10.07;5.82;;;;;;;26.29;54.55;96754.19;2075068;28;20197;-66
2022/08/28 10:56:29;;;;;;;12.00;5.63;;;;;;;26.33;54.04;96753.66;2076312;28;20201;-66
2022/08/28 10:57:47;;;;;;;8.43;5.60;;;;;;;26.48;54.44;96755.72;2074983;28;20251;-66
2022/08/28 10:58:56;;;;;;;9.35;5.53;;;;;;;26.53;53.64;96732.78;2071200;28;20193;-66
2022/08/28 11:00:01;;;;;;;13.10;5.53;;;;;;;26.68;53.88;96743.66;2073307;28;20198;-67
2022/08/28 11:01:12;;;;;;;7.40;5.65;;;;;;;26.44;54.44;96752.53;2071507;28;20672;-66
2022/08/28 11:02:20;;;;;;;9.95;5.65;;;;;;;26.59;54.55;96754.53;2072047;28;20217;-67
2022/08/28 11:03:25;;;;;;;14.35;5.90;;;;;;;26.58;54.31;96753.69;2081712;28;20213;-67
2022/08/28 11:04:35;;;;;;;10.15;7.35;;;;;;;26.16;55.18;96758.16;2079070;28;20230;-66
2022/08/28 11:05:46;;;;;;;36.85;22.88;;;;;;;25.86;55.12;96748.84;2074515;28;20233;-65
2022/08/28 11:07:05;;;;;;;25.33;18.52;;;;;;;25.54;55.88;96748.56;2072993;28;20243;-66
2022/08/28 11:08:22;;;;;;;21.77;7.57;;;;;;;25.29;57.20;96754.75;2073364;28;20198;-67
2022/08/28 11:09:37;;;;;;;18.38;11.23;;;;;;;25.76;56.74;96754.31;2074535;28;20193;-67
2022/08/28 11:10:49;;;;;;;9.35;5.93;;;;;;;26.54;54.52;96755.06;2074030;28;20441;-67
2022/08/28 11:11:55;;;;;;;18.00;10.98;;;;;;;27.24;52.60;96740.28;2071844;28;20201;-67
2022/08/28 11:13:05;;;;;;;17.65;10.32;;;;;;;27.49;51.66;96750.94;2074665;28;20197;-71
2022/08/28 11:21:07;;;;;;;9.30;5.03;;;;;;;29.06;45.22;96761.59;2069222;28;20190;-68
2022/08/28 11:22:14;;;;;;;9.32;5.53;;;;;;;29.35;45.14;96753.78;2070602;28;20225;-69
2022/08/28 11:23:23;;;;;;;12.75;8.65;;;;;;;29.43;43.97;96759.06;2071447;28;20201;-69
2022/08/28 11:24:50;;;;;;;12.40;9.07;;;;;;;29.72;42.90;96762.78;2066327;28;20210;-69
2022/08/28 11:26:00;;;;;;;15.30;10.13;;;;;;;29.56;44.18;96758.41;2067894;28;20186;-69
2022/08/28 11:27:25;;;;;;;10.40;6.60;;;;;;;30.29;43.39;96761.19;2066067;28;20494;-69
2022/08/28 11:28:33;;;;;;;11.43;5.83;;;;;;;29.63;44.36;96756.66;2070543;28;20538;-69
2022/08/28 11:30:20;;;;;;;7.55;4.55;;;;;;;30.13;42.70;96755.03;2070986;28;20799;-67
2022/08/28 11:31:29;;;;;;;7.30;4.53;;;;;;;29.15;44.14;96752.44;2067565;28;20198;-68
2022/08/28 11:32:31;;;;;;;6.97;4.47;;;;;;;28.79;45.69;96757.66;2070983;28;20466;-67
2022/08/28 11:33:46;;;;;;;7.50;4.87;;;;;;;29.84;44.14;96742.44;2070901;28;21046;-67
2022/08/28 11:34:58;;;;;;;14.10;5.43;;;;;;;30.66;42.63;96753.94;2070097;28;20434;-67
2022/08/28 11:36:00;;;;;;;9.90;4.43;;;;;;;30.60;42.63;96749.31;2069510;28;20427;-66
2022/08/28 11:37:02;;;;;;;12.80;5.73;;;;;;;30.78;42.96;96755.09;2070296;28;20464;-66
2022/08/28 11:38:04;;;;;;;11.37;8.50;;;;;;;30.40;42.91;96752.63;2066679;28;20427;-66
2022/08/28 11:39:12;;;;;;;11.47;5.50;;;;;;;30.53;42.22;96740.34;2066977;28;21067;-66
2022/08/28 11:40:27;;;;;;;10.10;5.90;;;;;;;28.64;46.32;96758.38;2064723;28;20428;-66
2022/08/28 11:41:33;;;;;;;12.03;5.43;;;;;;;29.77;44.80;96753.09;2067020;28;20470;-66
2022/08/28 11:42:36;;;;;;;8.10;5.30;;;;;;;29.59;44.41;96748.13;2065113;28;20447;-67
2022/08/28 11:43:39;;;;;;;9.10;4.90;;;;;;;29.79;43.88;96734.94;2070991;28;20443;-66
2022/08/28 11:44:44;;;;;;;8.80;4.67;;;;;;;30.49;43.17;96747.97;2071499;28;20439;-66
2022/08/28 11:45:46;;;;;;;11.07;4.50;;;;;;;31.01;42.27;96750.47;2068490;28;20423;-66
2022/08/28 11:46:51;;;;;;;8.43;4.60;;;;;;;31.01;41.89;96754.03;2064488;28;20908;-67
2022/08/28 11:47:55;;;;;;;10.07;4.67;;;;;;;30.52;43.06;96744.88;2064448;28;20439;-67
2022/08/28 11:49:02;;;;;;;9.23;4.40;;;;;;;31.15;42.59;96752.28;2063990;28;20431;-67
2022/08/28 11:50:15;;;;;;;9.63;4.23;;;;;;;31.32;41.41;96749.28;2064127;28;20428;-67
2022/08/28 11:51:16;;;;;;;5.57;4.53;;;;;;;31.25;40.90;96749.25;2068240;28;20432;-67
2022/08/28 11:52:46;;;;;;;8.07;5.00;;;;;;;30.87;41.35;96745.00;2068493;28;20477;-67
2022/08/28 11:54:21;;;;;;;8.50;3.87;;;;;;;30.07;43.05;96744.19;2071007;28;20926;-67
2022/08/28 11:55:49;;;;;;;7.80;4.90;;;;;;;31.08;41.93;96746.84;2068932;28;20435;-69
2022/08/28 11:57:00;;;;;;;53.63;39.90;;;;;;;31.75;41.84;96752.66;2068053;28;20428;-70
2022/08/28 11:58:08;;;;;;;11.13;6.83;;;;;;;31.13;41.83;96743.56;2069364;28;20485;-70
2022/08/28 11:59:30;;;;;;;26.23;19.53;;;;;;;31.65;41.27;96752.19;2070726;28;20419;-70
2022/08/28 12:00:56;;;;;;;15.47;10.03;;;;;;;31.60;40.38;96746.53;2065548;28;20442;-70
2022/08/28 12:02:35;;;;;;;12.63;4.70;;;;;;;30.62;41.80;96747.25;2067200;28;20471;-69
2022/08/28 12:03:57;;;;;;;12.33;4.40;;;;;;;30.49;42.14;96744.44;2068060;28;20586;-69
2022/08/28 12:04:58;;;;;;;7.93;4.27;;;;;;;30.67;41.87;96750.22;2067747;28;20424;-69
2022/08/28 12:06:01;;;;;;;5.63;4.60;;;;;;;31.20;40.48;96749.03;2063330;28;20468;-69
2022/08/28 12:07:08;;;;;;;6.07;4.20;;;;;;;30.85;40.62;96747.03;2057985;28;20490;-68
2022/08/28 12:08:11;;;;;;;6.20;4.50;;;;;;;31.24;41.25;96744.88;2073542;28;20450;-68
2022/08/28 12:09:25;;;;;;;10.53;4.90;;;;;;;30.95;42.64;96746.72;2069909;28;21107;-69
2022/08/28 12:10:26;;;;;;;6.70;4.23;;;;;;;31.32;42.77;96747.41;2065593;28;20433;-69
2022/08/28 12:11:43;;;;;;;12.47;4.63;;;;;;;30.51;43.82;96745.91;2066453;28;21045;-69
2022/08/28 12:12:58;;;;;;;7.00;4.60;;;;;;;29.72;45.21;96747.44;2066108;28;20412;-68
2022/08/28 12:14:00;;;;;;;8.30;4.63;;;;;;;29.63;45.32;96748.59;2065343;28;20478;-69
2022/08/28 12:15:06;;;;;;;12.67;5.07;;;;;;;28.83;46.37;96749.03;2066766;28;20499;-68
2022/08/28 12:16:08;;;;;;;12.93;5.23;;;;;;;28.89;46.75;96747.47;2066770;28;20436;-69
2022/08/28 12:17:44;;;;;;;9.20;4.60;;;;;;;28.91;46.98;96752.66;2068409;28;20467;-68
2022/08/28 12:18:58;;;;;;;7.50;4.83;;;;;;;28.56;46.54;96736.97;2066581;28;20444;-68
2022/08/28 12:20:09;;;;;;;6.70;4.20;;;;;;;28.57;46.27;96757.44;2071583;28;21135;-68
2022/08/28 12:21:23;;;;;;;6.33;3.93;;;;;;;28.37;45.61;96750.88;2067354;28;20427;-68
2022/08/28 12:22:51;;;;;;;11.50;4.43;;;;;;;28.28;45.84;96747.44;2071628;28;20824;-68
2022/08/28 12:23:55;;;;;;;5.27;3.80;;;;;;;29.15;44.94;96752.44;2062496;28;20431;-68
2022/08/28 12:33:09;;;;;;;5.93;3.80;;;;;;;30.90;40.67;96741.91;2067924;28;20443;-69
2022/08/28 12:34:27;;;;;;;7.97;3.93;;;;;;;30.05;41.32;96740.84;2069787;28;20423;-70
2022/08/28 12:35:29;;;;;;;8.23;4.20;;;;;;;30.53;41.24;96735.78;2067953;28;20821;-69
2022/08/28 12:36:31;;;;;;;7.70;4.33;;;;;;;29.90;41.51;96733.66;2066297;28;21015;-70
2022/08/28 12:37:41;;;;;;;5.53;4.20;;;;;;;29.98;41.77;96732.72;2069584;28;20459;-70
2022/08/28 12:38:53;;;;;;;8.60;4.70;;;;;;;29.39;42.64;96736.25;2068232;28;20481;-69
2022/08/28 12:40:08;;;;;;;7.97;3.60;;;;;;;29.44;42.52;96721.22;2063916;28;20503;-69
2022/08/28 12:41:21;;;;;;;8.43;3.80;;;;;;;29.58;43.16;96735.69;2063734;28;20455;-68
2022/08/28 12:42:28;;;;;;;9.00;4.50;;;;;;;30.42;41.87;96739.81;2065547;28;20451;-69
2022/08/28 12:43:42;;;;;;;6.80;4.60;;;;;;;30.09;41.38;96734.06;2070479;28;20443;-68
2022/08/28 12:44:47;;;;;;;6.50;4.67;;;;;;;28.38;44.26;96739.97;2067981;28;20665;-68
2022/08/28 12:45:55;;;;;;;7.63;4.97;;;;;;;26.19;47.82;96731.06;2069773;28;20432;-69
2022/08/28 12:46:57;;;;;;;8.53;4.60;;;;;;;27.81;46.06;96730.38;2067959;28;20877;-68
2022/08/28 12:48:03;;;;;;;5.60;4.65;;;;;;;28.91;44.82;96736.53;2067581;28;20448;-69
2022/08/28 12:49:26;;;;;;;14.88;4.70;;;;;;;28.63;45.17;96716.44;2068115;28;20233;-68
2022/08/28 12:50:37;;;;;;;6.67;4.00;;;;;;;28.74;46.05;96723.25;2068870;28;20209;-69
2022/08/28 12:51:38;;;;;;;7.00;3.93;;;;;;;28.81;45.73;96720.66;2067908;28;20907;-68
2022/08/28 12:52:52;;;;;;;8.53;4.70;;;;;;;29.23;44.41;96721.09;2068177;28;20439;-70
2022/08/28 12:54:00;;;;;;;5.43;4.23;;;;;;;29.88;43.36;96727.63;2070294;28;20952;-70
2022/08/28 12:55:01;;;;;;;6.90;3.97;;;;;;;30.48;41.77;96732.84;2067798;28;20526;-70
2022/08/28 12:56:03;;;;;;;8.63;4.10;;;;;;;30.71;41.19;96727.22;2066735;28;20470;-71
2022/08/28 12:57:08;;;;;;;10.33;3.57;;;;;;;30.32;40.23;96715.03;2066979;28;20460;-69
2022/08/28 12:58:26;;;;;;;8.20;3.60;;;;;;;28.63;44.09;96727.19;2066516;28;20802;-69
2022/08/28 12:59:36;;;;;;;6.40;4.00;;;;;;;29.74;42.30;96729.28;2067684;28;20438;-69
2022/08/28 13:00:53;;;;;;;7.77;4.30;;;;;;;30.79;40.93;96728.94;2066054;28;20434;-70
2022/08/28 13:02:05;;;;;;;8.80;3.70;;;;;;;30.69;40.33;96715.84;2066670;28;21113;-70
2022/08/28 13:03:06;;;;;;;7.67;4.03;;;;;;;30.67;40.49;96712.50;2067588;28;20542;-70
2022/08/28 13:04:26;;;;;;;8.07;3.87;;;;;;;31.32;40.38;96723.16;2069973;28;20439;-69
2022/08/28 13:05:38;;;;;;;6.13;3.87;;;;;;;32.02;39.58;96727.66;2061864;28;20467;-69
2022/08/28 13:06:40;;;;;;;6.20;4.40;;;;;;;32.45;39.53;96735.47;2064461;28;21068;-69
2022/08/28 13:07:48;;;;;;;6.07;4.10;;;;;;;32.23;40.41;96732.13;2065617;28;20439;-70
2022/08/28 13:09:14;;;;;;;5.57;3.67;;;;;;;31.74;40.83;96725.88;2066433;28;20945;-70
2022/08/28 13:10:20;;;;;;;7.37;3.50;;;;;;;32.00;40.14;96730.56;2066772;28;20813;-69
2022/08/28 13:11:22;;;;;;;5.90;3.47;;;;;;;32.01;40.03;96723.28;2068156;28;20984;-69
2022/08/28 13:12:25;;;;;;;8.37;4.67;;;;;;;32.01;39.47;96720.56;2068547;28;20463;-69
2022/08/28 13:13:49;;;;;;;6.77;4.27;;;;;;;32.27;39.30;96730.66;2067112;28;20420;-70
2022/08/28 13:14:51;;;;;;;5.33;3.97;;;;;;;31.61;40.34;96721.22;2066492;28;20428;-70
2022/08/28 13:15:56;;;;;;;8.30;4.40;;;;;;;31.77;39.80;96728.19;2064883;28;20942;-67
2022/08/28 13:16:58;;;;;;;6.00;4.40;;;;;;;31.08;40.83;96725.28;2064727;28;20463;-67
2022/08/28 13:18:03;;;;;;;6.50;3.70;;;;;;;31.64;40.02;96715.44;2065810;28;20923;-64
2022/08/28 13:19:05;;;;;;;7.80;4.40;;;;;;;31.80;39.50;96726.97;2067885;28;20423;-63
2022/08/28 13:20:07;;;;;;;5.97;4.13;;;;;;;31.88;39.75;96724.06;2066433;28;20428;-64
2022/08/28 13:21:12;;;;;;;5.30;3.53;;;;;;;31.74;39.19;96724.03;2065356;28;20427;-64
2022/08/28 13:22:37;;;;;;;8.93;4.30;;;;;;;31.55;40.33;96716.63;2065157;28;20460;-65
2022/08/28 13:23:54;;;;;;;11.00;3.80;;;;;;;31.22;40.11;96720.81;2066406;28;21124;-64
2022/08/28 13:25:00;;;;;;;4.87;3.67;;;;;;;31.78;39.02;96719.03;2065918;28;21169;-64
2022/08/28 13:26:05;;;;;;;5.83;3.30;;;;;;;31.86;38.73;96718.06;2067017;28;20923;-63
2022/08/28 13:27:06;;;;;;;8.10;3.20;;;;;;;31.77;38.87;96714.69;2065021;28;20892;-63
2022/08/28 13:28:16;;;;;;;5.73;3.60;;;;;;;32.08;38.57;96719.56;2068097;28;20424;-63
2022/08/28 13:29:23;;;;;;;8.77;4.17;;;;;;;30.66;39.92;96697.34;2067978;28;20419;-63
2022/08/28 13:30:33;;;;;;;7.97;3.63;;;;;;;30.35;41.47;96713.81;2068405;28;20488;-63
2022/08/28 13:31:39;;;;;;;7.07;3.97;;;;;;;30.84;40.14;96714.91;2067247;28;20427;-63
2022/08/28 13:32:54;;;;;;;7.40;4.20;;;;;;;31.26;39.10;96707.75;2066400;28;20450;-63
2022/08/28 13:34:15;;;;;;;5.70;3.43;;;;;;;31.27;39.09;96717.50;2066825;28;21009;-63
2022/08/28 13:35:16;;;;;;;5.03;3.10;;;;;;;32.02;38.04;96715.00;2065505;28;20428;-64
2022/08/28 13:36:21;;;;;;;4.40;3.30;;;;;;;31.46;39.03;96710.56;2068112;28;20423;-64
2022/08/28 13:37:51;;;;;;;11.60;4.10;;;;;;;32.26;38.01;96712.78;2065364;28;20978;-62
2022/08/28 13:38:53;;;;;;;7.60;3.53;;;;;;;32.13;37.16;96694.66;2066211;28;20424;-64
2022/08/28 13:39:55;;;;;;;5.50;3.80;;;;;;;31.20;39.10;96717.47;2068593;28;20439;-63
2022/08/28 13:41:02;;;;;;;5.60;3.33;;;;;;;31.96;37.63;96702.31;2068156;28;20491;-63
2022/08/28 13:42:07;;;;;;;8.00;4.00;;;;;;;31.78;37.76;96713.66;2073805;28;20533;-63
2022/08/28 13:43:10;;;;;;;12.20;3.20;;;;;;;31.68;38.86;96714.03;2077614;28;20422;-63
2022/08/28 13:44:33;;;;;;;6.10;3.37;;;;;;;31.89;38.70;96706.84;2066180;28;20436;-63
2022/08/28 13:45:38;;;;;;;9.00;3.80;;;;;;;31.85;38.13;96703.72;2066461;28;20434;-66
2022/08/28 13:46:43;;;;;;;5.67;3.60;;;;;;;31.51;38.87;96707.28;2064908;28;21162;-66
2022/08/28 13:47:45;;;;;;;16.37;3.77;;;;;;;31.44;39.25;96701.84;2067643;28;20554;-65
2022/08/28 13:48:46;;;;;;;11.67;3.90;;;;;;;31.13;40.19;96716.59;2066308;28;20427;-65
2022/08/28 13:49:48;;;;;;;7.27;3.83;;;;;;;30.60;41.22;96707.06;2067356;28;20432;-66
2022/08/28 13:50:55;;;;;;;5.50;3.33;;;;;;;30.62;40.54;96706.84;2063164;28;20913;-66
2022/08/28 13:51:59;;;;;;;4.77;3.50;;;;;;;31.18;39.98;96703.34;2059784;28;20510;-66
2022/08/28 13:53:01;;;;;;;6.07;3.43;;;;;;;31.22;39.57;96669.59;2069164;28;20440;-66
2022/08/28 13:54:03;;;;;;;7.17;4.03;;;;;;;31.88;38.54;96706.03;2069184;28;20910;-65
2022/08/28 13:55:06;;;;;;;8.70;4.10;;;;;;;32.41;37.37;96709.91;2063058;28;20966;-66
2022/08/28 13:56:10;;;;;;;10.23;3.60;;;;;;;32.33;37.40;96705.53;2063311;28;20431;-67
2022/08/28 13:57:12;;;;;;;5.77;2.93;;;;;;;32.01;37.41;96710.63;2062495;28;20466;-68
2022/08/28 13:58:14;;;;;;;7.60;3.90;;;;;;;32.29;36.87;96704.28;2063046;28;20447;-68
2022/08/28 13:59:17;;;;;;;5.63;3.23;;;;;;;32.52;36.55;96709.31;2068004;28;20427;-68
2022/08/28 14:00:18;;;;;;;6.10;3.20;;;;;;;32.06;37.36;96710.84;2068758;28;20941;-68
2022/08/28 14:03:34;;;;;;;4.33;3.30;;;;;;;32.39;37.21;96680.41;2063856;28;20431;-68
2022/08/28 14:04:04;;;;;;;4.50;3.20;;;;;;;31.85;38.53;96692.91;2066422;28;20431;-68
2022/08/28 14:05:06;;;;;;;12.73;3.57;;;;;;;32.02;37.96;96684.44;2067321;28;20431;-68
2022/08/28 14:06:13;;;;;;;10.33;4.63;;;;;;;32.38;37.39;96704.94;2066802;28;20467;-68
2022/08/28 14:07:14;;;;;;;7.80;4.47;;;;;;;31.32;39.17;96680.00;2066309;28;20972;-68
2022/08/28 14:08:16;;;;;;;6.13;3.90;;;;;;;30.27;40.35;96682.47;2073385;28;20434;-68
2022/08/28 14:09:18;;;;;;;6.10;3.73;;;;;;;28.07;44.19;96689.00;2074541;28;20419;-68
2022/08/28 14:10:21;;;;;;;6.03;3.73;;;;;;;28.42;44.45;96679.53;2066438;28;20837;-67
2022/08/28 14:18:05;;;;;;;6.93;3.83;;;;;;;29.40;43.62;96676.09;2067577;28;20422;-66
2022/08/28 14:19:07;;;;;;;8.23;4.00;;;;;;;29.06;43.18;96678.28;2066431;28;20954;-65
2022/08/28 14:20:10;;;;;;;5.30;4.20;;;;;;;28.82;44.13;96687.41;2065745;28;20446;-65
2022/08/28 14:21:15;;;;;;;7.73;4.00;;;;;;;29.03;43.69;96686.72;2067761;28;20450;-66
2022/08/28 14:22:17;;;;;;;7.10;3.30;;;;;;;29.41;43.00;96686.66;2065352;28;20463;-66
2022/08/28 14:23:18;;;;;;;7.47;3.63;;;;;;;30.01;41.20;96670.41;2065986;28;20434;-65
2022/08/28 14:24:21;;;;;;;6.53;3.30;;;;;;;30.45;40.81;96684.72;2066485;28;20427;-65
2022/08/28 14:25:25;;;;;;;7.93;3.30;;;;;;;30.73;40.30;96668.59;2065961;28;20430;-65
2022/08/28 14:26:27;;;;;;;10.80;4.03;;;;;;;30.90;39.25;96685.31;2067641;28;21115;-65
2022/08/28 14:27:29;;;;;;;5.50;4.00;;;;;;;30.93;39.14;96684.06;2066937;28;20463;-65
2022/08/28 14:28:30;;;;;;;6.13;3.60;;;;;;;30.69;39.15;96672.72;2068060;28;20428;-65
2022/08/28 14:29:32;;;;;;;7.40;4.17;;;;;;;31.31;39.28;96681.03;2066866;28;20427;-65
2022/08/28 14:30:33;;;;;;;6.80;3.57;;;;;;;31.40;38.62;96660.13;2068767;28;20427;-66
2022/08/28 14:31:35;;;;;;;8.07;3.97;;;;;;;31.20;39.30;96679.72;2068886;28;20434;-68
2022/08/28 14:32:37;;;;;;;18.87;4.07;;;;;;;31.28;39.19;96673.34;2068827;28;20459;-68
2022/08/28 14:33:38;;;;;;;7.10;3.73;;;;;;;31.27;39.58;96680.59;2068658;28;20428;-68
2022/08/28 14:34:42;;;;;;;4.97;4.00;;;;;;;30.80;39.88;96671.34;2066598;28;20452;-68
2022/08/28 14:35:45;;;;;;;7.30;3.10;;;;;;;31.06;39.91;96681.50;2066938;28;20504;-67
2022/08/28 14:36:53;;;;;;;7.93;3.37;;;;;;;31.25;38.67;96674.56;2068009;28;20960;-68
2022/08/28 14:37:55;;;;;;;13.20;4.07;;;;;;;31.33;39.03;96667.34;2068256;28;20461;-68
2022/08/28 14:38:59;;;;;;;7.77;3.87;;;;;;;29.33;41.67;96662.53;2069197;28;20423;-67
2022/08/28 14:40:07;;;;;;;7.17;6.37;;;;;;;30.07;40.59;96672.34;2064650;28;20432;-68
2022/08/28 14:41:09;;;;;;;20.43;16.10;;;;;;;30.67;40.58;96672.06;2065774;28;20458;-68
2022/08/28 14:42:10;;;;;;;7.43;4.53;;;;;;;30.26;40.36;96673.56;2066516;28;20451;-68
2022/08/28 14:43:13;;;;;;;42.27;34.10;;;;;;;29.80;42.05;96669.34;2066837;28;20434;-64
2022/08/28 14:44:16;;;;;;;11.50;6.70;;;;;;;29.78;41.76;96660.59;2067517;28;20463;-65
2022/08/28 14:45:17;;;;;;;7.80;4.23;;;;;;;29.99;41.48;96671.63;2069572;28;21122;-68
2022/08/28 14:46:27;;;;;;;10.30;3.73;;;;;;;30.07;41.62;96658.06;2065564;28;20420;-68
2022/08/28 14:54:06;;;;;;;9.00;3.33;;;;;;;30.63;39.16;96670.81;2069842;28;20431;-66
2022/08/28 14:55:09;;;;;;;6.80;3.90;;;;;;;30.48;39.93;96662.81;2069876;28;21040;-67
2022/08/28 14:56:11;;;;;;;6.30;3.90;;;;;;;30.95;38.80;96666.66;2069220;28;20856;-66
2022/08/28 14:57:16;;;;;;;10.03;3.97;;;;;;;30.81;39.76;96661.41;2067545;28;20552;-67
2022/08/28 14:58:19;;;;;;;8.30;3.77;;;;;;;30.31;39.27;96627.22;2068914;28;20431;-67
2022/08/28 15:06:07;;;;;;;4.53;3.40;;;;;;;30.77;39.13;96664.47;2069253;28;20474;-68
2022/08/28 15:07:09;;;;;;;7.30;3.87;;;;;;;30.51;39.15;96659.72;2070528;28;20477;-68
2022/08/28 15:08:15;;;;;;;4.97;3.30;;;;;;;30.51;39.69;96666.97;2071245;28;20467;-68
2022/08/28 15:09:18;;;;;;;8.07;3.90;;;;;;;30.59;38.94;96653.38;2068513;28;20438;-68
2022/08/28 15:10:19;;;;;;;3.67;3.00;;;;;;;30.31;40.08;96659.53;2067582;28;20431;-68
2022/08/28 15:11:23;;;;;;;6.00;2.90;;;;;;;30.66;39.89;96662.31;2069804;28;20694;-68
2022/08/28 15:12:27;;;;;;;3.63;3.10;;;;;;;30.54;40.04;96634.28;2066777;28;20451;-68
2022/08/28 15:13:29;;;;;;;5.60;3.90;;;;;;;30.73;39.99;96659.69;2068179;28;20470;-68
2022/08/28 15:14:32;;;;;;;5.53;3.70;;;;;;;30.40;40.89;96663.75;2068082;28;20427;-68
2022/08/28 15:15:33;;;;;;;5.80;3.50;;;;;;;30.42;40.92;96656.31;2066600;28;20428;-68
2022/08/28 15:16:40;;;;;;;10.93;3.20;;;;;;;30.39;40.12;96663.94;2068445;28;20435;-68
2022/08/28 15:17:42;;;;;;;5.60;3.60;;;;;;;30.41;40.55;96657.34;2067291;28;20442;-68
2022/08/28 15:18:45;;;;;;;4.80;3.50;;;;;;;30.60;39.94;96660.41;2068870;28;20432;-68
2022/08/28 15:19:46;;;;;;;6.47;3.50;;;;;;;30.52;40.29;96656.00;2069214;28;20442;-68
2022/08/28 15:20:48;;;;;;;5.63;3.40;;;;;;;30.07;40.80;96661.56;2069486;28;20480;-68
2022/08/28 15:21:53;;;;;;;4.67;2.90;;;;;;;30.14;40.71;96656.25;2068833;28;20428;-68
2022/08/28 15:22:54;;;;;;;6.10;3.27;;;;;;;30.23;40.81;96657.81;2068236;28;20423;-68
2022/08/28 15:23:56;;;;;;;4.17;3.30;;;;;;;30.13;40.59;96654.56;2069839;28;20427;-67
2022/08/28 15:24:58;;;;;;;4.70;2.90;;;;;;;29.97;40.95;96639.53;2067351;28;20845;-68